Time;durP1;ratioP1;P1;durP2;ratioP2;P2;SDS_P1;SDS_P2;PMS_P1;PMS_P2;Temp;Humidity;BMP_temperature;BMP_pressure;BME280_temperature;BME280_humidity;BME280_pressure;Samples;Min_cycle;Max_cycle;Signal;HPM_P1;HPM_P2
2024/04/23 00:00:20;;;;;;;9.57;6.97;;;0.60;99.90;;;;;;2251598;26;20256;-68
2024/04/23 00:01:21;;;;;;;8.63;5.93;;;0.60;99.90;;;;;;2252137;26;20280;-68
2024/04/23 00:02:22;;;;;;;10.27;6.53;;;0.50;99.90;;;;;;2250420;26;20294;-68
2024/04/23 00:03:22;;;;;;;9.30;6.53;;;0.50;99.90;;;;;;2236734;26;20415;-68
2024/04/23 00:04:23;;;;;;;9.13;6.77;;;0.50;99.90;;;;;;2234815;26;20291;-68
2024/04/23 00:05:23;;;;;;;10.03;6.30;;;0.50;99.90;;;;;;2250446;26;20264;-68
2024/04/23 00:06:24;;;;;;;8.03;5.47;;;0.40;99.90;;;;;;2251414;26;20262;-69
2024/04/23 00:07:24;;;;;;;8.57;6.00;;;0.40;99.90;;;;;;2251508;26;20310;-68
2024/04/23 00:08:25;;;;;;;9.47;6.03;;;0.40;99.90;;;;;;2251781;26;20322;-68
2024/04/23 00:09:26;;;;;;;12.33;7.07;;;0.30;99.90;;;;;;2251398;26;20843;-69
2024/04/23 00:10:26;;;;;;;9.05;5.68;;;0.20;99.90;;;;;;2250974;26;20334;-68
2024/04/23 00:11:28;;;;;;;12.47;8.33;;;0.20;99.90;;;;;;2243860;26;20272;-68
2024/04/23 00:12:29;;;;;;;10.18;6.97;;;0.40;99.90;;;;;;2252011;26;20306;-68
2024/04/23 00:13:29;;;;;;;9.77;6.27;;;0.30;99.90;;;;;;2252652;26;20652;-68
2024/04/23 00:14:30;;;;;;;11.30;7.00;;;0.30;99.90;;;;;;2252081;26;20678;-68
2024/04/23 00:15:30;;;;;;;10.07;6.83;;;0.30;99.90;;;;;;2250501;26;20691;-68
2024/04/23 00:16:31;;;;;;;11.27;7.17;;;0.30;99.90;;;;;;2251037;26;20736;-68
2024/04/23 00:17:31;;;;;;;10.43;7.10;;;0.30;99.90;;;;;;2251732;26;20879;-68
2024/04/23 00:18:32;;;;;;;11.60;7.53;;;0.30;99.90;;;;;;2252071;26;20368;-68
2024/04/23 00:19:33;;;;;;;8.57;6.53;;;0.30;99.90;;;;;;2251079;26;20268;-68
2024/04/23 00:20:34;;;;;;;10.10;6.32;;;0.40;99.90;;;;;;2252065;26;20260;-69
2024/04/23 00:21:34;;;;;;;10.60;7.80;;;0.30;99.90;;;;;;2252438;26;20260;-68
2024/04/23 00:22:35;;;;;;;10.47;6.67;;;0.40;99.90;;;;;;2252073;26;20728;-68
2024/04/23 00:23:37;;;;;;;11.03;8.10;;;0.40;99.90;;;;;;2252897;26;20300;-68
2024/04/23 00:24:37;;;;;;;9.43;6.85;;;0.40;99.90;;;;;;2251831;26;20264;-68
2024/04/23 00:25:38;;;;;;;10.80;7.37;;;0.40;99.90;;;;;;2251108;26;20255;-68
2024/04/23 00:26:39;;;;;;;8.82;6.50;;;0.30;99.90;;;;;;2251503;26;20681;-69
2024/04/23 00:27:39;;;;;;;9.30;6.47;;;0.30;99.90;;;;;;2246079;26;20319;-69
2024/04/23 00:28:40;;;;;;;8.00;5.93;;;0.40;99.90;;;;;;2252836;26;20760;-69
2024/04/23 00:29:40;;;;;;;8.83;6.17;;;0.40;99.90;;;;;;2252112;26;20423;-68
2024/04/23 00:30:41;;;;;;;11.00;7.87;;;0.40;99.90;;;;;;2251546;26;20259;-69
2024/04/23 00:31:42;;;;;;;11.10;6.73;;;0.40;99.90;;;;;;2251079;26;20298;-68
2024/04/23 00:32:42;;;;;;;9.43;6.00;;;0.40;99.90;;;;;;2248152;26;20302;-68
2024/04/23 00:33:43;;;;;;;12.07;7.10;;;0.40;99.90;;;;;;2253696;26;20779;-69
2024/04/23 00:34:43;;;;;;;10.30;6.83;;;0.40;99.90;;;;;;2251828;26;20328;-69
2024/04/23 00:35:44;;;;;;;10.77;7.33;;;0.40;99.90;;;;;;2252180;26;20272;-69
2024/04/23 00:36:55;;;;;;;9.43;5.97;;;0.40;99.90;;;;;;2253175;26;20256;-68
2024/04/23 00:37:56;;;;;;;12.80;7.22;;;0.30;99.90;;;;;;2252277;26;20272;-69
2024/04/23 00:38:56;;;;;;;10.23;6.67;;;0.30;99.90;;;;;;2253171;26;20256;-68
2024/04/23 00:39:57;;;;;;;9.60;6.83;;;0.30;99.90;;;;;;2259400;26;20258;-68
2024/04/23 00:40:57;;;;;;;10.97;6.67;;;0.40;99.90;;;;;;2257610;26;20264;-69
2024/04/23 00:41:58;;;;;;;9.43;6.17;;;0.30;99.90;;;;;;2252694;26;20255;-68
2024/04/23 00:42:59;;;;;;;10.67;6.60;;;0.30;99.90;;;;;;2252991;26;20310;-69
2024/04/23 00:43:59;;;;;;;10.70;6.67;;;0.30;99.90;;;;;;2252387;26;20298;-68
2024/04/23 00:45:00;;;;;;;10.40;6.80;;;0.30;99.90;;;;;;2251589;26;20303;-68
2024/04/23 00:46:05;;;;;;;10.43;7.47;;;0.30;99.90;;;;;;2250629;26;20240;-68
2024/04/23 00:47:05;;;;;;;8.68;6.03;;;0.30;99.90;;;;;;2252049;26;20292;-68
2024/04/23 00:48:06;;;;;;;8.83;6.10;;;0.20;99.90;;;;;;2247926;26;20232;-69
2024/04/23 00:49:09;;;;;;;13.13;7.30;;;0.20;99.90;;;;;;2250273;26;20236;-68
2024/04/23 00:50:10;;;;;;;10.27;6.90;;;0.20;99.90;;;;;;2236781;26;20218;-68
2024/04/23 00:51:11;;;;;;;10.93;6.80;;;0.30;99.90;;;;;;2232692;26;20230;-68
2024/04/23 00:52:13;;;;;;;12.07;7.67;;;0.30;99.90;;;;;;2245997;26;20285;-69
2024/04/23 00:53:14;;;;;;;8.27;5.85;;;0.30;99.90;;;;;;2245279;26;20807;-68
2024/04/23 00:54:17;;;;;;;11.93;6.90;;;0.30;99.90;;;;;;2243509;26;20219;-69
2024/04/23 00:55:18;;;;;;;9.40;6.65;;;0.40;99.90;;;;;;2247869;26;20220;-68
2024/04/23 00:56:20;;;;;;;11.13;6.93;;;0.30;99.90;;;;;;2246057;26;20228;-68
2024/04/23 00:57:21;;;;;;;10.45;7.63;;;0.20;99.90;;;;;;2244104;26;20673;-68
2024/04/23 00:58:22;;;;;;;11.00;7.30;;;0.20;99.90;;;;;;2243787;26;20271;-69
2024/04/23 00:59:23;;;;;;;8.80;5.93;;;0.20;99.90;;;;;;2246900;26;20264;-68
2024/04/23 01:00:24;;;;;;;10.18;6.10;;;0.20;99.90;;;;;;2236336;26;20793;-68
2024/04/23 01:01:24;;;;;;;10.50;7.13;;;0.20;99.90;;;;;;2234661;26;20277;-68
2024/04/23 01:02:25;;;;;;;11.40;7.87;;;0.20;99.90;;;;;;2237060;26;20257;-69
2024/04/23 01:03:25;;;;;;;11.07;7.40;;;0.30;99.90;;;;;;2244235;26;20407;-68
2024/04/23 01:04:26;;;;;;;10.57;6.50;;;0.20;99.90;;;;;;2241801;26;20268;-69
2024/04/23 01:05:27;;;;;;;10.20;7.10;;;0.20;99.90;;;;;;2250674;26;20767;-68
2024/04/23 01:06:27;;;;;;;14.27;8.43;;;0.10;99.90;;;;;;2251441;26;20718;-68
2024/04/23 01:07:28;;;;;;;11.73;7.03;;;0.00;99.90;;;;;;2251392;26;20366;-68
2024/04/23 01:08:28;;;;;;;10.73;7.40;;;-0.10;99.90;;;;;;2251441;26;20263;-68
2024/04/23 01:09:29;;;;;;;13.10;7.73;;;-0.10;99.90;;;;;;2250565;26;20280;-69
2024/04/23 01:10:30;;;;;;;9.17;6.00;;;-0.10;99.90;;;;;;2252721;26;20702;-68
2024/04/23 01:11:31;;;;;;;9.97;6.27;;;0.00;99.90;;;;;;2250756;26;20794;-68
2024/04/23 01:12:32;;;;;;;10.02;6.53;;;0.00;99.90;;;;;;2251317;26;20707;-68
2024/04/23 01:13:32;;;;;;;10.97;7.20;;;0.10;99.90;;;;;;2250987;26;20369;-68
2024/04/23 01:14:36;;;;;;;10.77;7.03;;;0.20;99.90;;;;;;2251180;26;20264;-68
2024/04/23 01:15:38;;;;;;;10.70;7.38;;;0.20;99.90;;;;;;2251097;26;20409;-68
2024/04/23 01:16:42;;;;;;;11.55;6.65;;;0.20;99.90;;;;;;2249872;26;20264;-69
2024/04/23 01:17:46;;;;;;;10.52;7.25;;;0.20;99.90;;;;;;2244668;26;20636;-68
2024/04/23 01:18:47;;;;;;;9.68;6.07;;;0.00;99.90;;;;;;2250760;26;20735;-68
2024/04/23 01:19:51;;;;;;;9.85;6.90;;;0.10;99.90;;;;;;2248054;26;20263;-68
2024/04/23 01:20:56;;;;;;;9.95;6.90;;;0.10;99.90;;;;;;2234850;26;20356;-68
2024/04/23 01:22:06;;;;;;;9.77;6.93;;;0.10;99.90;;;;;;2244243;26;20337;-68
2024/04/23 01:23:26;;;;;;;12.20;8.00;;;0.00;99.90;;;;;;2244607;26;20266;-68
2024/04/23 01:24:33;;;;;;;11.07;7.10;;;0.10;99.90;;;;;;2258058;26;20721;-68
2024/04/23 01:25:36;;;;;;;13.00;7.22;;;0.20;99.90;;;;;;2263375;26;20278;-69
2024/04/23 01:26:37;;;;;;;10.27;6.72;;;0.30;99.90;;;;;;2250879;26;20260;-68
2024/04/23 01:27:38;;;;;;;10.18;6.75;;;0.20;99.90;;;;;;2252471;26;20263;-69
2024/04/23 01:28:40;;;;;;;10.82;6.80;;;0.30;99.90;;;;;;2249353;26;20268;-68
2024/04/23 01:29:41;;;;;;;9.77;7.05;;;0.30;99.90;;;;;;2248878;26;20315;-69
2024/04/23 01:30:43;;;;;;;11.70;7.83;;;0.30;99.90;;;;;;2252392;26;20660;-69
2024/04/23 01:31:44;;;;;;;12.15;7.40;;;0.30;99.90;;;;;;2250875;26;20297;-68
2024/04/23 01:32:47;;;;;;;10.10;6.78;;;0.30;99.90;;;;;;2250872;26;20656;-68
2024/04/23 01:33:49;;;;;;;10.27;6.38;;;0.30;99.90;;;;;;2249497;26;20268;-68
2024/04/23 01:34:52;;;;;;;9.68;6.13;;;0.20;99.90;;;;;;2248756;26;20264;-69
2024/04/23 01:35:53;;;;;;;10.70;7.20;;;0.20;99.90;;;;;;2247184;26;20264;-68
2024/04/23 01:36:54;;;;;;;10.15;6.53;;;0.20;99.90;;;;;;2250627;26;20318;-68
2024/04/23 01:37:57;;;;;;;10.53;7.27;;;0.30;99.90;;;;;;2249606;26;20822;-68
2024/04/23 01:39:00;;;;;;;12.32;7.70;;;0.20;99.90;;;;;;2249822;26;20263;-69
2024/04/23 01:40:02;;;;;;;11.20;6.40;;;0.20;99.90;;;;;;2249020;26;20737;-68
2024/04/23 01:41:03;;;;;;;13.20;7.80;;;0.10;99.90;;;;;;2242615;26;20810;-68
2024/04/23 01:42:04;;;;;;;9.93;6.30;;;0.10;99.90;;;;;;2250404;26;20231;-68
2024/04/23 01:43:05;;;;;;;12.57;8.23;;;0.20;99.90;;;;;;2250610;26;20282;-68
2024/04/23 01:44:06;;;;;;;11.00;7.23;;;0.10;99.90;;;;;;2250402;26;20304;-69
2024/04/23 01:45:09;;;;;;;10.52;7.28;;;0.20;99.90;;;;;;2249233;26;20751;-68
2024/04/23 01:46:10;;;;;;;8.55;6.45;;;0.20;99.90;;;;;;2249486;26;20250;-69
2024/04/23 01:47:11;;;;;;;11.05;7.18;;;0.20;99.90;;;;;;2249379;26;20752;-69
2024/04/23 01:48:11;;;;;;;11.20;6.27;;;0.30;99.90;;;;;;2251082;26;20217;-68
2024/04/23 01:49:12;;;;;;;9.37;6.20;;;0.30;99.90;;;;;;2251233;26;20255;-68
2024/04/23 01:50:13;;;;;;;8.93;6.20;;;0.30;99.90;;;;;;2250826;26;20238;-69
2024/04/23 01:51:14;;;;;;;8.38;6.43;;;0.10;99.90;;;;;;2250512;26;20228;-68
2024/04/23 01:52:14;;;;;;;9.57;6.80;;;0.10;99.90;;;;;;2251228;26;20255;-70
2024/04/23 01:53:15;;;;;;;10.10;6.77;;;0.10;99.90;;;;;;2234605;26;20229;-69
2024/04/23 01:54:16;;;;;;;8.80;6.37;;;0.20;99.90;;;;;;2250276;26;20224;-69
2024/04/23 01:55:18;;;;;;;9.27;6.63;;;0.10;99.90;;;;;;2251101;26;20215;-69
2024/04/23 01:56:19;;;;;;;9.68;6.20;;;0.00;99.90;;;;;;2251686;26;20223;-69
2024/04/23 01:57:20;;;;;;;9.50;6.17;;;-0.10;99.90;;;;;;2250355;26;20216;-69
2024/04/23 01:58:21;;;;;;;10.98;6.72;;;0.00;99.90;;;;;;2249948;26;20286;-69
2024/04/23 01:59:22;;;;;;;10.05;6.53;;;-0.10;99.90;;;;;;2249425;26;20268;-69
2024/04/23 02:00:24;;;;;;;10.70;6.97;;;-0.10;99.90;;;;;;2251686;26;20728;-69
2024/04/23 02:01:26;;;;;;;10.13;6.50;;;-0.10;99.90;;;;;;2251372;26;20264;-69
2024/04/23 02:02:27;;;;;;;9.18;6.25;;;-0.10;99.90;;;;;;2252131;26;20321;-70
2024/04/23 02:03:29;;;;;;;9.43;6.63;;;0.00;99.90;;;;;;2252359;26;20271;-69
2024/04/23 02:04:30;;;;;;;10.35;6.50;;;0.00;99.90;;;;;;2251034;26;20318;-68
2024/04/23 02:05:31;;;;;;;8.23;6.13;;;0.00;99.90;;;;;;2251222;26;20299;-69
2024/04/23 02:06:32;;;;;;;9.97;6.47;;;0.00;99.90;;;;;;2250392;26;20275;-69
2024/04/23 02:07:32;;;;;;;10.83;6.00;;;0.00;99.90;;;;;;2250877;26;20373;-69
2024/04/23 02:08:33;;;;;;;12.00;6.60;;;-0.10;99.90;;;;;;2251348;26;20489;-69
2024/04/23 02:09:34;;;;;;;9.00;6.57;;;-0.10;99.90;;;;;;2250651;26;20264;-69
2024/04/23 02:10:41;;;;;;;8.85;5.57;;;0.00;99.90;;;;;;2250319;26;20267;-69
2024/04/23 02:11:42;;;;;;;9.38;6.40;;;0.00;99.90;;;;;;2243033;26;20931;-69
2024/04/23 02:12:43;;;;;;;9.30;6.40;;;0.00;99.90;;;;;;2254653;26;20255;-69
2024/04/23 02:13:44;;;;;;;12.20;6.80;;;-0.10;99.90;;;;;;2252294;26;20267;-69
2024/04/23 02:14:44;;;;;;;9.27;6.33;;;-0.10;99.90;;;;;;2242865;26;20729;-70
2024/04/23 02:15:45;;;;;;;13.50;7.90;;;-0.10;99.90;;;;;;2249583;26;20376;-69
2024/04/23 02:16:45;;;;;;;8.97;6.27;;;-0.10;99.90;;;;;;2247548;26;20275;-68
2024/04/23 02:17:46;;;;;;;11.47;7.20;;;-0.10;99.90;;;;;;2242026;26;20264;-69
2024/04/23 02:18:46;;;;;;;8.63;5.87;;;-0.10;99.90;;;;;;2244790;26;20263;-69
2024/04/23 02:19:47;;;;;;;12.97;7.77;;;-0.30;99.90;;;;;;2249077;26;20279;-69
2024/04/23 02:20:48;;;;;;;10.13;6.57;;;-0.20;99.90;;;;;;2249529;26;20289;-69
2024/04/23 02:21:48;;;;;;;10.57;7.33;;;-0.20;99.90;;;;;;2249496;26;20609;-69
2024/04/23 02:22:49;;;;;;;9.97;6.70;;;-0.20;99.90;;;;;;2245900;26;20646;-69
2024/04/23 02:23:49;;;;;;;9.30;6.23;;;-0.20;99.90;;;;;;2243707;26;20670;-69
2024/04/23 02:24:50;;;;;;;9.57;6.03;;;-0.20;99.90;;;;;;2243044;26;20264;-68
2024/04/23 02:25:50;;;;;;;9.33;5.90;;;-0.30;99.90;;;;;;2245924;26;20385;-69
2024/04/23 02:26:51;;;;;;;9.03;6.00;;;-0.30;99.90;;;;;;2247840;26;20331;-69
2024/04/23 02:27:51;;;;;;;10.97;6.37;;;-0.30;99.90;;;;;;2249830;26;20318;-69
2024/04/23 02:28:52;;;;;;;9.03;6.53;;;-0.30;99.90;;;;;;2245253;26;20268;-69
2024/04/23 02:29:53;;;;;;;9.73;5.90;;;-0.30;99.90;;;;;;2244959;26;20578;-69
2024/04/23 02:30:53;;;;;;;12.87;7.43;;;-0.30;99.90;;;;;;2245718;26;20610;-69
2024/04/23 02:32:01;;;;;;;9.37;5.93;;;-0.30;99.90;;;;;;2244632;26;20265;-69
2024/04/23 02:33:02;;;;;;;11.93;7.18;;;-0.30;99.90;;;;;;2245023;26;20260;-69
2024/04/23 02:34:02;;;;;;;10.20;6.70;;;-0.30;99.90;;;;;;2244711;26;20771;-69
2024/04/23 02:35:04;;;;;;;9.60;6.87;;;-0.40;99.90;;;;;;2244786;26;20705;-68
2024/04/23 02:36:05;;;;;;;11.38;7.43;;;-0.30;99.90;;;;;;2245230;26;20279;-68
2024/04/23 02:37:06;;;;;;;9.80;6.10;;;-0.40;99.90;;;;;;2244965;26;20777;-69
2024/04/23 02:38:06;;;;;;;8.52;6.43;;;-0.30;99.90;;;;;;2245130;26;20609;-69
2024/04/23 02:39:07;;;;;;;10.40;7.37;;;-0.30;99.90;;;;;;2244178;26;20240;-69
2024/04/23 02:40:08;;;;;;;9.40;6.57;;;-0.30;99.90;;;;;;2245976;26;20264;-69
2024/04/23 02:41:09;;;;;;;8.85;5.68;;;-0.30;99.90;;;;;;2245406;26;20255;-69
2024/04/23 02:42:09;;;;;;;8.73;5.90;;;-0.40;99.90;;;;;;2245065;26;20231;-69
2024/04/23 02:43:10;;;;;;;9.87;6.13;;;-0.40;99.90;;;;;;2251816;26;20231;-69
2024/04/23 02:44:11;;;;;;;9.60;6.27;;;-0.60;99.90;;;;;;2235918;26;20220;-68
2024/04/23 02:45:11;;;;;;;10.53;7.53;;;-0.60;99.90;;;;;;2235468;26;20225;-69
2024/04/23 02:46:12;;;;;;;8.97;6.13;;;-0.50;99.90;;;;;;2242513;26;20237;-68
2024/04/23 02:47:13;;;;;;;8.60;5.50;;;-0.50;99.90;;;;;;2228900;26;20226;-69
2024/04/23 02:48:13;;;;;;;7.83;5.60;;;-0.50;99.90;;;;;;2230868;26;20275;-69
2024/04/23 02:49:14;;;;;;;8.93;5.80;;;-0.40;99.90;;;;;;2233106;26;20221;-69
2024/04/23 02:50:15;;;;;;;11.03;7.40;;;-0.40;99.90;;;;;;2206336;26;20632;-69
2024/04/23 02:51:15;;;;;;;11.40;6.90;;;-0.50;99.90;;;;;;2222283;26;20323;-68
2024/04/23 02:52:16;;;;;;;10.47;6.17;;;-0.40;99.90;;;;;;2229935;26;20221;-69
2024/04/23 02:53:17;;;;;;;12.50;7.77;;;-0.40;99.90;;;;;;2214872;26;20227;-69
2024/04/23 02:54:18;;;;;;;11.47;6.23;;;-0.40;99.90;;;;;;2206213;26;20226;-68
2024/04/23 02:55:18;;;;;;;9.32;5.78;;;-0.40;99.90;;;;;;2206860;26;20739;-69
2024/04/23 02:56:19;;;;;;;8.13;5.60;;;-0.50;99.90;;;;;;2230825;26;20233;-69
2024/04/23 02:57:20;;;;;;;7.77;6.20;;;-0.40;99.90;;;;;;2253133;26;20221;-69
2024/04/23 02:58:21;;;;;;;8.63;6.27;;;-0.40;99.90;;;;;;2251670;26;20648;-69
2024/04/23 02:59:22;;;;;;;8.87;5.77;;;-0.40;99.90;;;;;;2224510;26;20273;-69
2024/04/23 03:00:23;;;;;;;8.45;6.00;;;-0.50;99.90;;;;;;2218535;26;20337;-69
2024/04/23 03:01:23;;;;;;;8.93;5.90;;;-0.50;99.90;;;;;;2222161;26;20338;-68
2024/04/23 03:02:24;;;;;;;8.73;6.27;;;-0.40;99.90;;;;;;2230157;26;20309;-69
2024/04/23 03:03:25;;;;;;;10.27;6.40;;;-0.40;99.90;;;;;;2233368;26;20644;-69
2024/04/23 03:04:25;;;;;;;10.77;7.23;;;-0.50;99.90;;;;;;2243742;26;20311;-69
2024/04/23 03:05:26;;;;;;;11.47;7.13;;;-0.50;99.90;;;;;;2235729;26;20304;-68
2024/04/23 03:06:27;;;;;;;10.13;6.80;;;-0.50;99.90;;;;;;2250428;26;20376;-68
2024/04/23 03:07:27;;;;;;;10.23;6.10;;;-0.50;99.90;;;;;;2251743;26;22128;-69
2024/04/23 03:08:28;;;;;;;10.33;7.17;;;-0.70;99.90;;;;;;2241816;26;20284;-69
2024/04/23 03:09:29;;;;;;;10.93;6.87;;;-0.70;99.90;;;;;;2227279;26;20269;-69
2024/04/23 03:10:29;;;;;;;10.07;6.53;;;-0.70;99.90;;;;;;2233519;26;20281;-69
2024/04/23 03:11:30;;;;;;;8.77;5.93;;;-0.70;99.90;;;;;;2212854;26;20758;-69
2024/04/23 03:12:31;;;;;;;9.70;6.53;;;-0.70;99.90;;;;;;2210270;26;20373;-68
2024/04/23 03:13:31;;;;;;;9.27;6.63;;;-0.60;99.90;;;;;;2232444;26;20261;-69
2024/04/23 03:14:32;;;;;;;11.63;6.87;;;-0.60;99.90;;;;;;2217712;26;20340;-69
2024/04/23 03:15:32;;;;;;;9.83;6.23;;;-0.50;99.90;;;;;;2221008;26;20270;-69
2024/04/23 03:16:33;;;;;;;9.70;6.17;;;-0.50;99.90;;;;;;2236294;26;20652;-69
2024/04/23 03:17:34;;;;;;;11.77;6.50;;;-0.50;99.90;;;;;;2236090;26;20269;-69
2024/04/23 03:18:34;;;;;;;11.17;5.60;;;-0.50;99.90;;;;;;2235901;26;20291;-69
2024/04/23 03:19:35;;;;;;;9.40;6.17;;;-0.50;99.90;;;;;;2222014;26;20332;-69
2024/04/23 03:20:36;;;;;;;9.00;6.40;;;-0.50;99.90;;;;;;2234465;26;21002;-69
2024/04/23 03:21:54;;;;;;;9.50;6.57;;;-0.50;99.90;;;;;;2216013;26;20269;-69
2024/04/23 03:22:55;;;;;;;9.40;6.13;;;-0.50;99.90;;;;;;2230981;26;20404;-69
2024/04/23 03:23:55;;;;;;;8.67;5.23;;;-0.50;99.90;;;;;;2232901;26;20819;-69
2024/04/23 03:24:56;;;;;;;10.60;7.63;;;-0.50;99.90;;;;;;2244093;26;20276;-69
2024/04/23 03:25:57;;;;;;;10.97;7.13;;;-0.50;99.90;;;;;;2242639;26;20303;-69
2024/04/23 03:26:57;;;;;;;9.60;6.10;;;-0.50;99.90;;;;;;2243592;26;20319;-69
2024/04/23 03:27:58;;;;;;;10.70;7.00;;;-0.50;99.90;;;;;;2243527;26;20264;-69
2024/04/23 03:28:59;;;;;;;9.57;6.57;;;-0.60;99.90;;;;;;2230678;26;20276;-69
2024/04/23 03:29:59;;;;;;;9.67;5.67;;;-0.60;99.90;;;;;;2243201;26;20272;-69
2024/04/23 03:31:00;;;;;;;10.20;6.77;;;-0.60;99.90;;;;;;2251576;26;20263;-69
2024/04/23 03:32:03;;;;;;;9.53;6.53;;;-0.60;99.90;;;;;;2249768;26;22549;-68
2024/04/23 03:33:04;;;;;;;12.00;7.30;;;-0.60;99.90;;;;;;2251550;26;20359;-69
2024/04/23 03:34:05;;;;;;;8.83;6.27;;;-0.60;99.90;;;;;;2251433;26;20231;-68
2024/04/23 03:35:05;;;;;;;7.60;5.70;;;-0.50;99.90;;;;;;2250248;26;20228;-69
2024/04/23 03:36:07;;;;;;;11.80;7.47;;;-0.40;99.90;;;;;;2250530;26;20714;-69
2024/04/23 03:37:08;;;;;;;9.68;7.40;;;-0.40;99.90;;;;;;2251590;26;20232;-69
2024/04/23 03:38:08;;;;;;;10.67;7.20;;;-0.40;99.90;;;;;;2249450;26;20605;-69
2024/04/23 03:39:09;;;;;;;10.93;6.33;;;-0.30;99.90;;;;;;2240672;26;20260;-69
2024/04/23 03:40:10;;;;;;;11.77;6.03;;;-0.30;99.90;;;;;;2249636;26;20216;-68
2024/04/23 03:41:10;;;;;;;10.97;7.07;;;-0.40;99.90;;;;;;2250299;26;20763;-68
2024/04/23 03:42:11;;;;;;;13.47;7.90;;;-0.40;99.90;;;;;;2250194;26;20331;-68
2024/04/23 03:43:12;;;;;;;11.00;6.73;;;-0.40;99.90;;;;;;2224889;26;20253;-69
2024/04/23 03:44:12;;;;;;;9.13;5.53;;;-0.40;99.90;;;;;;2235441;26;20220;-69
2024/04/23 03:45:13;;;;;;;9.70;6.03;;;-0.50;99.90;;;;;;2247796;26;20224;-68
2024/04/23 03:46:14;;;;;;;8.20;5.97;;;-0.50;99.90;;;;;;2234911;26;20225;-69
2024/04/23 03:47:14;;;;;;;8.33;5.63;;;-0.50;99.90;;;;;;2230674;26;20218;-69
2024/04/23 03:48:15;;;;;;;12.33;6.80;;;-0.50;99.90;;;;;;2222429;26;20230;-68
2024/04/23 03:49:16;;;;;;;12.30;6.87;;;-0.50;99.90;;;;;;2224591;26;20222;-69
2024/04/23 03:50:16;;;;;;;11.27;6.80;;;-0.50;99.90;;;;;;2223900;26;20256;-69
2024/04/23 03:51:17;;;;;;;9.93;6.60;;;-0.60;99.90;;;;;;2214556;26;20624;-68
2024/04/23 03:52:18;;;;;;;12.23;7.77;;;-0.60;99.90;;;;;;2233244;26;20222;-69
2024/04/23 03:53:18;;;;;;;11.30;7.40;;;-0.60;99.90;;;;;;2244630;26;20301;-68
2024/04/23 03:54:19;;;;;;;9.80;6.87;;;-0.60;99.90;;;;;;2250413;26;20224;-68
2024/04/23 03:55:20;;;;;;;11.77;8.60;;;-0.60;99.90;;;;;;2220730;26;20231;-69
2024/04/23 03:56:20;;;;;;;10.33;7.10;;;-0.60;99.90;;;;;;2230704;26;21510;-68
2024/04/23 03:57:21;;;;;;;13.17;7.80;;;-0.60;99.90;;;;;;2251024;26;20272;-69
2024/04/23 03:58:22;;;;;;;10.10;7.17;;;-0.60;99.90;;;;;;2252410;26;20271;-69
2024/04/23 03:59:22;;;;;;;10.67;7.47;;;-0.60;99.90;;;;;;2250069;26;20267;-68
2024/04/23 04:00:23;;;;;;;9.03;6.17;;;-0.60;99.90;;;;;;2250301;26;20847;-69
2024/04/23 04:01:24;;;;;;;12.77;8.20;;;-0.50;99.90;;;;;;2251177;26;20313;-69
2024/04/23 04:06:23;;;;;;;11.73;8.02;;;-0.70;99.90;;;;;;2241830;26;20259;-69
2024/04/23 04:07:24;;;;;;;11.43;7.33;;;-0.60;99.90;;;;;;2244152;26;20616;-68
2024/04/23 04:08:24;;;;;;;11.60;7.20;;;-0.60;99.90;;;;;;2216106;26;20266;-68
2024/04/23 04:09:25;;;;;;;13.80;8.53;;;-0.60;99.90;;;;;;2205231;26;20267;-69
2024/04/23 04:10:26;;;;;;;12.17;7.93;;;-0.70;99.90;;;;;;2222396;26;20682;-68
2024/04/23 04:11:31;;;;;;;12.30;8.93;;;-0.60;99.90;;;;;;2218072;26;20278;-69
2024/04/23 04:12:32;;;;;;;9.75;6.90;;;-0.70;99.90;;;;;;2213804;26;20267;-68
2024/04/23 04:13:33;;;;;;;11.23;8.83;;;-0.70;99.90;;;;;;2230084;26;20269;-68
2024/04/23 04:14:33;;;;;;;11.87;8.80;;;-0.70;99.90;;;;;;2247526;26;20410;-69
2024/04/23 04:15:34;;;;;;;12.63;7.23;;;-0.70;99.90;;;;;;2229339;26;20276;-69
2024/04/23 04:16:35;;;;;;;12.33;7.60;;;-0.70;99.90;;;;;;2220602;26;20265;-69
2024/04/23 04:17:35;;;;;;;11.33;7.60;;;-0.70;99.90;;;;;;2235740;26;20346;-69
2024/04/23 04:18:36;;;;;;;12.80;8.27;;;-0.70;99.90;;;;;;2250026;26;20696;-69
2024/04/23 04:19:40;;;;;;;8.33;5.97;;;-0.60;99.90;;;;;;2235079;26;20277;-69
2024/04/23 04:20:41;;;;;;;11.32;7.47;;;-0.70;99.90;;;;;;2222225;26;20843;-68
2024/04/23 04:21:42;;;;;;;11.47;7.47;;;-0.70;99.90;;;;;;2235890;26;20373;-68
2024/04/23 04:22:42;;;;;;;12.20;8.20;;;-0.70;99.90;;;;;;2250792;26;20268;-69
2024/04/23 04:23:43;;;;;;;13.70;8.37;;;-0.70;99.90;;;;;;2250419;26;20354;-68
2024/04/23 04:24:44;;;;;;;11.83;7.97;;;-0.70;99.90;;;;;;2234791;26;20876;-69
2024/04/23 04:25:44;;;;;;;9.37;6.03;;;-0.70;99.90;;;;;;2236456;26;20307;-69
2024/04/23 04:26:45;;;;;;;10.43;6.57;;;-0.70;99.90;;;;;;2250774;26;20761;-69
2024/04/23 04:27:46;;;;;;;12.77;8.33;;;-0.90;99.90;;;;;;2251070;26;20268;-69
2024/04/23 04:28:46;;;;;;;13.53;8.73;;;-0.80;99.90;;;;;;2250716;26;20294;-69
2024/04/23 04:29:47;;;;;;;11.83;8.20;;;-0.80;99.90;;;;;;2249660;26;20337;-68
2024/04/23 04:30:48;;;;;;;13.67;8.17;;;-0.70;99.90;;;;;;2234855;26;20370;-68
2024/04/23 04:31:48;;;;;;;11.00;7.23;;;-0.80;99.90;;;;;;2250309;26;20271;-69
2024/04/23 04:32:49;;;;;;;13.73;8.47;;;-0.80;99.90;;;;;;2250177;26;20279;-69
2024/04/23 04:33:50;;;;;;;11.67;7.83;;;-0.90;99.90;;;;;;2236333;26;20268;-68
2024/04/23 04:34:50;;;;;;;10.70;7.87;;;-0.90;99.90;;;;;;2249573;26;20271;-69
2024/04/23 04:35:51;;;;;;;12.17;7.53;;;-1.00;99.90;;;;;;2250431;26;20628;-69
2024/04/23 04:36:52;;;;;;;9.87;6.53;;;-0.90;99.90;;;;;;2234972;26;20457;-69
2024/04/23 04:37:53;;;;;;;12.83;8.83;;;-0.90;99.90;;;;;;2248867;26;20325;-69
2024/04/23 04:38:53;;;;;;;12.37;8.13;;;-0.90;99.90;;;;;;2251267;26;20276;-69
2024/04/23 04:39:54;;;;;;;10.33;7.30;;;-0.90;99.90;;;;;;2250902;26;21037;-69
2024/04/23 04:40:55;;;;;;;11.00;7.43;;;-1.00;99.90;;;;;;2264225;26;20362;-68
2024/04/23 04:41:59;;;;;;;15.53;7.23;;;-1.00;99.90;;;;;;2249072;26;20298;-69
2024/04/23 04:43:00;;;;;;;12.15;7.55;;;-1.00;99.90;;;;;;2249039;26;20302;-69
2024/04/23 04:44:01;;;;;;;12.53;8.43;;;-1.00;99.90;;;;;;2264090;26;20904;-68
2024/04/23 04:45:03;;;;;;;12.63;7.40;;;-1.00;99.90;;;;;;2248163;26;20633;-67
2024/04/23 04:46:04;;;;;;;16.67;9.20;;;-0.90;99.90;;;;;;2249923;26;21025;-68
2024/04/23 04:47:04;;;;;;;14.30;9.10;;;-0.90;99.90;;;;;;2234168;26;20344;-68
2024/04/23 04:48:05;;;;;;;14.27;8.90;;;-0.80;99.90;;;;;;2221771;26;20235;-68
2024/04/23 04:49:06;;;;;;;11.13;7.28;;;-0.80;99.90;;;;;;2250961;26;20286;-68
2024/04/23 04:50:07;;;;;;;11.83;8.67;;;-0.80;99.90;;;;;;2251358;26;20574;-68
2024/04/23 04:51:07;;;;;;;11.73;7.97;;;-0.80;99.90;;;;;;2220072;26;20273;-68
2024/04/23 04:52:08;;;;;;;12.63;8.60;;;-0.70;99.90;;;;;;2235244;26;20678;-69
2024/04/23 04:53:09;;;;;;;11.73;7.80;;;-0.70;99.90;;;;;;2250681;26;20231;-68
2024/04/23 04:54:09;;;;;;;13.20;8.30;;;-0.70;99.90;;;;;;2235601;26;20256;-68
2024/04/23 04:55:11;;;;;;;12.40;7.80;;;-0.70;99.90;;;;;;2232712;26;20327;-68
2024/04/23 04:56:11;;;;;;;12.13;8.05;;;-0.60;99.90;;;;;;2221706;26;20221;-68
2024/04/23 04:57:12;;;;;;;11.50;7.80;;;-0.60;99.90;;;;;;2228294;26;20240;-69
2024/04/23 04:58:13;;;;;;;10.70;6.93;;;-0.60;99.90;;;;;;2232379;26;20280;-70
2024/04/23 04:59:14;;;;;;;10.40;7.07;;;-0.50;99.90;;;;;;2220429;26;20273;-69
2024/04/23 05:00:15;;;;;;;11.43;7.60;;;-0.50;99.90;;;;;;2221438;26;20222;-68
2024/04/23 05:01:18;;;;;;;12.20;7.53;;;-0.50;99.90;;;;;;2234716;26;20237;-68
2024/04/23 05:02:18;;;;;;;13.05;7.57;;;-0.50;99.90;;;;;;2236367;26;20229;-68
2024/04/23 05:03:19;;;;;;;12.93;7.80;;;-0.40;99.90;;;;;;2229910;26;20217;-69
2024/04/23 05:04:20;;;;;;;12.77;8.13;;;-0.40;99.90;;;;;;2229185;26;20770;-69
2024/04/23 05:05:20;;;;;;;9.53;6.57;;;-0.50;99.90;;;;;;2235378;26;20388;-68
2024/04/23 05:06:21;;;;;;;11.63;7.20;;;-0.30;99.90;;;;;;2225888;26;20299;-69
2024/04/23 05:07:22;;;;;;;11.57;7.87;;;-0.20;99.90;;;;;;2249964;26;20276;-69
2024/04/23 05:08:23;;;;;;;11.20;7.28;;;-0.20;99.90;;;;;;2251515;26;20301;-68
2024/04/23 05:09:23;;;;;;;13.80;8.10;;;-0.20;99.90;;;;;;2230084;26;20290;-70
2024/04/23 05:10:24;;;;;;;10.70;7.47;;;-0.20;99.90;;;;;;2233645;26;20280;-70
2024/04/23 05:11:25;;;;;;;13.47;8.73;;;-0.20;99.90;;;;;;2218646;26;20770;-69
2024/04/23 05:12:26;;;;;;;15.80;12.03;;;-0.20;99.90;;;;;;2233737;26;20431;-69
2024/04/23 05:13:27;;;;;;;11.80;7.90;;;-0.20;99.90;;;;;;2235344;26;20295;-70
2024/04/23 05:14:28;;;;;;;12.13;7.23;;;-0.10;99.90;;;;;;2232846;26;20265;-69
2024/04/23 05:15:28;;;;;;;12.57;6.93;;;-0.10;99.90;;;;;;2236483;26;20264;-69
2024/04/23 05:16:29;;;;;;;11.27;7.20;;;-0.10;99.90;;;;;;2214504;26;20284;-70
2024/04/23 05:17:30;;;;;;;14.73;7.40;;;-0.10;99.90;;;;;;2212252;26;20300;-69
2024/04/23 05:18:30;;;;;;;12.60;8.47;;;-0.30;99.90;;;;;;2231555;26;20349;-69
2024/04/23 05:19:31;;;;;;;11.13;7.60;;;-0.30;99.90;;;;;;2227947;26;20358;-69
2024/04/23 05:20:32;;;;;;;12.37;6.73;;;-0.30;99.90;;;;;;2234022;26;20299;-69